sensor_id;sensor_type;location;lat;lon;timestamp;temperature;humidity
33564;DHT22;19894;48.452;11.494;2023-01-19T00:01:24;18.50;33.10
33564;DHT22;19894;48.452;11.494;2023-01-19T00:03:50;18.50;33.10
33564;DHT22;19894;48.452;11.494;2023-01-19T00:06:16;18.50;33.10
33564;DHT22;19894;48.452;11.494;2023-01-19T00:08:42;18.50;33.10
33564;DHT22;19894;48.452;11.494;2023-01-19T00:11:11;18.50;33.10
33564;DHT22;19894;48.452;11.494;2023-01-19T00:13:38;18.50;33.10
33564;DHT22;19894;48.452;11.494;2023-01-19T00:16:04;18.50;33.10
33564;DHT22;19894;48.452;11.494;2023-01-19T00:18:30;18.50;33.00
33564;DHT22;19894;48.452;11.494;2023-01-19T00:20:56;18.50;33.00
33564;DHT22;19894;48.452;11.494;2023-01-19T00:23:21;18.50;33.00
33564;DHT22;19894;48.452;11.494;2023-01-19T00:25:47;18.50;33.00
33564;DHT22;19894;48.452;11.494;2023-01-19T00:28:15;18.50;33.00
33564;DHT22;19894;48.452;11.494;2023-01-19T00:30:41;18.50;33.10
33564;DHT22;19894;48.452;11.494;2023-01-19T00:33:08;18.50;33.10
33564;DHT22;19894;48.452;11.494;2023-01-19T00:35:34;18.50;33.10
33564;DHT22;19894;48.452;11.494;2023-01-19T00:38:01;18.50;33.10
33564;DHT22;19894;48.452;11.494;2023-01-19T00:40:26;18.60;33.20
33564;DHT22;19894;48.452;11.494;2023-01-19T00:42:52;18.50;33.10
33564;DHT22;19894;48.452;11.494;2023-01-19T00:45:21;18.50;33.10
33564;DHT22;19894;48.452;11.494;2023-01-19T00:47:48;18.50;33.20
33564;DHT22;19894;48.452;11.494;2023-01-19T00:50:15;18.50;33.10
33564;DHT22;19894;48.452;11.494;2023-01-19T00:52:42;18.50;33.10
33564;DHT22;19894;48.452;11.494;2023-01-19T00:55:13;18.50;33.10
33564;DHT22;19894;48.452;11.494;2023-01-19T00:57:40;18.50;33.00
33564;DHT22;19894;48.452;11.494;2023-01-19T01:00:08;18.50;33.10
33564;DHT22;19894;48.452;11.494;2023-01-19T01:02:36;18.50;33.10
33564;DHT22;19894;48.452;11.494;2023-01-19T01:05:03;18.50;33.10
33564;DHT22;19894;48.452;11.494;2023-01-19T01:07:31;18.50;33.00
33564;DHT22;19894;48.452;11.494;2023-01-19T01:10:06;18.50;33.00
33564;DHT22;19894;48.452;11.494;2023-01-19T01:12:33;18.50;33.00
33564;DHT22;19894;48.452;11.494;2023-01-19T01:14:59;18.50;33.10
33564;DHT22;19894;48.452;11.494;2023-01-19T01:17:24;18.50;33.00
33564;DHT22;19894;48.452;11.494;2023-01-19T01:19:50;18.50;33.00
33564;DHT22;19894;48.452;11.494;2023-01-19T01:22:17;18.50;33.00
33564;DHT22;19894;48.452;11.494;2023-01-19T01:24:42;18.50;32.90
33564;DHT22;19894;48.452;11.494;2023-01-19T01:27:08;18.50;32.90
33564;DHT22;19894;48.452;11.494;2023-01-19T01:29:34;18.50;32.90
33564;DHT22;19894;48.452;11.494;2023-01-19T01:32:00;18.50;33.00
33564;DHT22;19894;48.452;11.494;2023-01-19T01:34:26;18.50;33.00
33564;DHT22;19894;48.452;11.494;2023-01-19T01:36:51;18.50;33.00
33564;DHT22;19894;48.452;11.494;2023-01-19T01:39:17;18.50;33.00
33564;DHT22;19894;48.452;11.494;2023-01-19T01:41:42;18.50;33.10
33564;DHT22;19894;48.452;11.494;2023-01-19T01:44:43;18.50;33.00
33564;DHT22;19894;48.452;11.494;2023-01-19T01:47:17;18.50;33.00
33564;DHT22;19894;48.452;11.494;2023-01-19T01:49:43;18.50;33.10
33564;DHT22;19894;48.452;11.494;2023-01-19T01:52:10;18.50;33.00
33564;DHT22;19894;48.452;11.494;2023-01-19T01:54:37;18.50;33.10
33564;DHT22;19894;48.452;11.494;2023-01-19T01:57:05;18.50;33.00
33564;DHT22;19894;48.452;11.494;2023-01-19T01:59:40;18.50;33.00
33564;DHT22;19894;48.452;11.494;2023-01-19T02:02:10;18.50;33.00
33564;DHT22;19894;48.452;11.494;2023-01-19T02:04:59;18.50;33.00
33564;DHT22;19894;48.452;11.494;2023-01-19T02:10:28;18.50;33.50
33564;DHT22;19894;48.452;11.494;2023-01-19T02:13:12;18.50;33.00
33564;DHT22;19894;48.452;11.494;2023-01-19T02:15:48;18.50;33.00
33564;DHT22;19894;48.452;11.494;2023-01-19T02:18:15;18.50;33.00
33564;DHT22;19894;48.452;11.494;2023-01-19T02:20:46;18.50;33.10
33564;DHT22;19894;48.452;11.494;2023-01-19T02:23:26;18.50;33.00
33564;DHT22;19894;48.452;11.494;2023-01-19T02:25:54;18.50;32.90
33564;DHT22;19894;48.452;11.494;2023-01-19T02:28:20;18.50;33.00
33564;DHT22;19894;48.452;11.494;2023-01-19T02:30:46;18.50;33.00
33564;DHT22;19894;48.452;11.494;2023-01-19T02:33:11;18.50;33.00
33564;DHT22;19894;48.452;11.494;2023-01-19T02:35:37;18.50;33.00
33564;DHT22;19894;48.452;11.494;2023-01-19T02:38:05;18.50;33.00
33564;DHT22;19894;48.452;11.494;2023-01-19T02:40:31;18.50;33.00
33564;DHT22;19894;48.452;11.494;2023-01-19T02:42:58;18.50;33.00
33564;DHT22;19894;48.452;11.494;2023-01-19T02:45:25;18.50;33.00
33564;DHT22;19894;48.452;11.494;2023-01-19T02:47:51;18.50;33.00
33564;DHT22;19894;48.452;11.494;2023-01-19T02:50:50;18.50;33.00
33564;DHT22;19894;48.452;11.494;2023-01-19T02:53:37;18.50;33.00
33564;DHT22;19894;48.452;11.494;2023-01-19T02:59:26;18.50;33.00
33564;DHT22;19894;48.452;11.494;2023-01-19T03:04:56;18.50;33.00
33564;DHT22;19894;48.452;11.494;2023-01-19T03:12:46;18.50;33.00
33564;DHT22;19894;48.452;11.494;2023-01-19T03:15:26;18.50;33.00
33564;DHT22;19894;48.452;11.494;2023-01-19T03:17:55;18.50;33.00
33564;DHT22;19894;48.452;11.494;2023-01-19T03:20:23;18.50;33.00
33564;DHT22;19894;48.452;11.494;2023-01-19T03:23:00;18.50;33.00
33564;DHT22;19894;48.452;11.494;2023-01-19T03:25:27;18.50;33.00
33564;DHT22;19894;48.452;11.494;2023-01-19T03:27:56;18.50;32.90
33564;DHT22;19894;48.452;11.494;2023-01-19T03:30:26;18.50;32.90
33564;DHT22;19894;48.452;11.494;2023-01-19T03:32:59;18.50;32.90
33564;DHT22;19894;48.452;11.494;2023-01-19T03:35:31;18.50;32.90
33564;DHT22;19894;48.452;11.494;2023-01-19T03:37:59;18.50;32.90
33564;DHT22;19894;48.452;11.494;2023-01-19T03:40:28;18.50;33.00
33564;DHT22;19894;48.452;11.494;2023-01-19T03:42:55;18.50;33.00
33564;DHT22;19894;48.452;11.494;2023-01-19T03:45:21;18.50;33.00
33564;DHT22;19894;48.452;11.494;2023-01-19T03:47:47;18.50;33.00
33564;DHT22;19894;48.452;11.494;2023-01-19T03:50:21;18.50;33.00
33564;DHT22;19894;48.452;11.494;2023-01-19T03:53:00;18.50;33.00
33564;DHT22;19894;48.452;11.494;2023-01-19T03:55:26;18.50;33.00
33564;DHT22;19894;48.452;11.494;2023-01-19T03:57:52;18.50;33.00
33564;DHT22;19894;48.452;11.494;2023-01-19T04:00:18;18.50;33.00
33564;DHT22;19894;48.452;11.494;2023-01-19T04:02:44;18.50;33.00
33564;DHT22;19894;48.452;11.494;2023-01-19T04:05:09;18.50;33.00
33564;DHT22;19894;48.452;11.494;2023-01-19T04:07:35;18.50;33.00
33564;DHT22;19894;48.452;11.494;2023-01-19T04:10:00;18.50;33.00
33564;DHT22;19894;48.452;11.494;2023-01-19T04:12:26;18.50;33.00
33564;DHT22;19894;48.452;11.494;2023-01-19T04:14:51;18.50;33.00
33564;DHT22;19894;48.452;11.494;2023-01-19T04:17:17;18.50;33.50
33564;DHT22;19894;48.452;11.494;2023-01-19T04:19:43;18.50;32.90
33564;DHT22;19894;48.452;11.494;2023-01-19T04:22:09;18.50;33.00
33564;DHT22;19894;48.452;11.494;2023-01-19T04:24:34;18.50;33.00
33564;DHT22;19894;48.452;11.494;2023-01-19T04:27:00;18.50;33.00
33564;DHT22;19894;48.452;11.494;2023-01-19T04:29:26;18.50;32.90
33564;DHT22;19894;48.452;11.494;2023-01-19T04:31:51;18.50;32.80
33564;DHT22;19894;48.452;11.494;2023-01-19T04:34:17;18.50;32.90
33564;DHT22;19894;48.452;11.494;2023-01-19T04:36:42;18.50;32.90
33564;DHT22;19894;48.452;11.494;2023-01-19T04:39:09;18.50;32.90
33564;DHT22;19894;48.452;11.494;2023-01-19T04:41:36;18.50;32.90
33564;DHT22;19894;48.452;11.494;2023-01-19T04:44:01;18.50;32.90
33564;DHT22;19894;48.452;11.494;2023-01-19T04:46:27;18.50;32.90
33564;DHT22;19894;48.452;11.494;2023-01-19T04:48:52;18.50;33.00
33564;DHT22;19894;48.452;11.494;2023-01-19T04:51:18;18.50;32.90
33564;DHT22;19894;48.452;11.494;2023-01-19T04:53:43;18.50;33.00
33564;DHT22;19894;48.452;11.494;2023-01-19T04:56:09;18.50;33.00
33564;DHT22;19894;48.452;11.494;2023-01-19T04:58:35;18.50;33.00
33564;DHT22;19894;48.452;11.494;2023-01-19T05:01:01;18.50;33.00
33564;DHT22;19894;48.452;11.494;2023-01-19T05:03:26;18.50;33.00
33564;DHT22;19894;48.452;11.494;2023-01-19T05:05:52;18.50;32.90
33564;DHT22;19894;48.452;11.494;2023-01-19T05:08:17;18.50;32.90
33564;DHT22;19894;48.452;11.494;2023-01-19T05:10:43;18.50;32.90
33564;DHT22;19894;48.452;11.494;2023-01-19T05:13:08;18.50;32.90
33564;DHT22;19894;48.452;11.494;2023-01-19T05:15:34;18.50;32.90
33564;DHT22;19894;48.452;11.494;2023-01-19T05:17:59;18.50;32.90
33564;DHT22;19894;48.452;11.494;2023-01-19T05:20:25;18.50;32.80
33564;DHT22;19894;48.452;11.494;2023-01-19T05:22:51;18.50;32.80
33564;DHT22;19894;48.452;11.494;2023-01-19T05:25:17;18.50;32.90
33564;DHT22;19894;48.452;11.494;2023-01-19T05:27:43;18.40;32.80
33564;DHT22;19894;48.452;11.494;2023-01-19T05:30:10;18.50;32.80
33564;DHT22;19894;48.452;11.494;2023-01-19T05:32:36;18.50;32.80
33564;DHT22;19894;48.452;11.494;2023-01-19T05:35:01;18.50;32.70
33564;DHT22;19894;48.452;11.494;2023-01-19T05:37:27;18.50;32.80
33564;DHT22;19894;48.452;11.494;2023-01-19T05:39:52;18.50;32.80
33564;DHT22;19894;48.452;11.494;2023-01-19T05:42:18;18.50;32.80
33564;DHT22;19894;48.452;11.494;2023-01-19T05:44:44;18.50;32.80
33564;DHT22;19894;48.452;11.494;2023-01-19T05:47:09;18.50;33.40
33564;DHT22;19894;48.452;11.494;2023-01-19T05:49:35;18.50;32.80
33564;DHT22;19894;48.452;11.494;2023-01-19T05:52:00;18.50;32.90
33564;DHT22;19894;48.452;11.494;2023-01-19T05:54:26;18.50;32.90
33564;DHT22;19894;48.452;11.494;2023-01-19T05:56:51;18.50;32.90
33564;DHT22;19894;48.452;11.494;2023-01-19T05:59:17;18.50;32.90
33564;DHT22;19894;48.452;11.494;2023-01-19T06:01:49;18.50;32.90
33564;DHT22;19894;48.452;11.494;2023-01-19T06:04:15;18.50;32.90
33564;DHT22;19894;48.452;11.494;2023-01-19T06:06:40;18.50;32.90
33564;DHT22;19894;48.452;11.494;2023-01-19T06:09:06;18.50;32.90
33564;DHT22;19894;48.452;11.494;2023-01-19T06:11:32;18.50;32.80
33564;DHT22;19894;48.452;11.494;2023-01-19T06:13:57;18.50;32.80
33564;DHT22;19894;48.452;11.494;2023-01-19T06:16:23;18.50;32.80
33564;DHT22;19894;48.452;11.494;2023-01-19T06:18:48;18.50;32.80
33564;DHT22;19894;48.452;11.494;2023-01-19T06:21:14;18.50;32.70
33564;DHT22;19894;48.452;11.494;2023-01-19T06:23:39;18.50;32.80
33564;DHT22;19894;48.452;11.494;2023-01-19T06:26:05;18.50;32.70
33564;DHT22;19894;48.452;11.494;2023-01-19T06:28:30;18.50;32.80
33564;DHT22;19894;48.452;11.494;2023-01-19T06:30:56;18.50;32.70
33564;DHT22;19894;48.452;11.494;2023-01-19T06:33:22;18.50;32.70
33564;DHT22;19894;48.452;11.494;2023-01-19T06:35:49;18.50;32.70
33564;DHT22;19894;48.452;11.494;2023-01-19T06:38:15;18.50;32.60
33564;DHT22;19894;48.452;11.494;2023-01-19T06:40:43;18.50;32.60
33564;DHT22;19894;48.452;11.494;2023-01-19T06:43:09;18.50;32.60
33564;DHT22;19894;48.452;11.494;2023-01-19T06:45:35;18.50;32.50
33564;DHT22;19894;48.452;11.494;2023-01-19T06:48:02;18.50;32.60
33564;DHT22;19894;48.452;11.494;2023-01-19T06:50:28;18.50;32.70
33564;DHT22;19894;48.452;11.494;2023-01-19T06:52:54;18.50;32.70
33564;DHT22;19894;48.452;11.494;2023-01-19T06:55:19;18.50;32.60
33564;DHT22;19894;48.452;11.494;2023-01-19T06:57:45;18.50;32.70
33564;DHT22;19894;48.452;11.494;2023-01-19T07:00:12;18.50;32.70
33564;DHT22;19894;48.452;11.494;2023-01-19T07:02:41;18.50;32.70
33564;DHT22;19894;48.452;11.494;2023-01-19T07:05:08;18.50;32.70
33564;DHT22;19894;48.452;11.494;2023-01-19T07:07:34;18.50;32.70
33564;DHT22;19894;48.452;11.494;2023-01-19T07:09:59;18.50;32.70
33564;DHT22;19894;48.452;11.494;2023-01-19T07:12:25;18.50;32.70
33564;DHT22;19894;48.452;11.494;2023-01-19T07:14:51;18.50;32.70
33564;DHT22;19894;48.452;11.494;2023-01-19T07:17:17;18.50;32.60
33564;DHT22;19894;48.452;11.494;2023-01-19T07:19:43;18.50;32.60
33564;DHT22;19894;48.452;11.494;2023-01-19T07:22:08;18.50;32.60
33564;DHT22;19894;48.452;11.494;2023-01-19T07:24:34;18.50;32.60
33564;DHT22;19894;48.452;11.494;2023-01-19T07:27:00;18.50;32.60
33564;DHT22;19894;48.452;11.494;2023-01-19T07:29:25;18.50;32.50
33564;DHT22;19894;48.452;11.494;2023-01-19T07:31:51;18.50;32.60
33564;DHT22;19894;48.452;11.494;2023-01-19T07:34:19;18.50;32.50
33564;DHT22;19894;48.452;11.494;2023-01-19T07:36:44;18.50;32.50
33564;DHT22;19894;48.452;11.494;2023-01-19T07:39:10;18.50;32.40
33564;DHT22;19894;48.452;11.494;2023-01-19T07:41:35;18.50;32.40
33564;DHT22;19894;48.452;11.494;2023-01-19T07:44:01;18.50;32.40
33564;DHT22;19894;48.452;11.494;2023-01-19T07:46:26;18.50;32.40
33564;DHT22;19894;48.452;11.494;2023-01-19T07:48:52;18.50;32.40
33564;DHT22;19894;48.452;11.494;2023-01-19T07:51:17;18.50;32.30
33564;DHT22;19894;48.452;11.494;2023-01-19T07:53:44;18.50;32.40
33564;DHT22;19894;48.452;11.494;2023-01-19T07:56:10;18.50;32.50
33564;DHT22;19894;48.452;11.494;2023-01-19T07:58:36;18.50;32.50
33564;DHT22;19894;48.452;11.494;2023-01-19T08:01:07;18.50;32.60
33564;DHT22;19894;48.452;11.494;2023-01-19T08:03:33;18.50;32.50
33564;DHT22;19894;48.452;11.494;2023-01-19T08:05:58;18.50;32.50
33564;DHT22;19894;48.452;11.494;2023-01-19T08:08:24;18.50;32.50
33564;DHT22;19894;48.452;11.494;2023-01-19T08:10:50;18.50;32.50
33564;DHT22;19894;48.452;11.494;2023-01-19T08:13:16;18.50;32.50
33564;DHT22;19894;48.452;11.494;2023-01-19T08:15:43;18.50;32.50
33564;DHT22;19894;48.452;11.494;2023-01-19T08:18:08;18.50;32.40
33564;DHT22;19894;48.452;11.494;2023-01-19T08:20:36;18.50;32.40
33564;DHT22;19894;48.452;11.494;2023-01-19T08:23:02;18.50;32.40
33564;DHT22;19894;48.452;11.494;2023-01-19T08:25:37;18.50;32.50
33564;DHT22;19894;48.452;11.494;2023-01-19T08:28:04;18.40;32.30
33564;DHT22;19894;48.452;11.494;2023-01-19T08:30:31;18.50;32.40
33564;DHT22;19894;48.452;11.494;2023-01-19T08:32:57;18.50;32.40
33564;DHT22;19894;48.452;11.494;2023-01-19T08:35:32;18.50;32.40
33564;DHT22;19894;48.452;11.494;2023-01-19T08:37:58;18.40;32.30
33564;DHT22;19894;48.452;11.494;2023-01-19T08:40:35;18.40;32.40
33564;DHT22;19894;48.452;11.494;2023-01-19T08:43:02;18.50;32.30
33564;DHT22;19894;48.452;11.494;2023-01-19T08:45:30;18.50;32.30
33564;DHT22;19894;48.452;11.494;2023-01-19T08:47:56;18.50;32.30
33564;DHT22;19894;48.452;11.494;2023-01-19T08:50:24;18.40;32.30
33564;DHT22;19894;48.452;11.494;2023-01-19T08:52:50;18.50;32.30
33564;DHT22;19894;48.452;11.494;2023-01-19T08:55:15;18.50;32.30
33564;DHT22;19894;48.452;11.494;2023-01-19T08:57:41;18.50;32.40
33564;DHT22;19894;48.452;11.494;2023-01-19T09:00:07;18.50;32.40
33564;DHT22;19894;48.452;11.494;2023-01-19T09:02:33;18.50;32.40
33564;DHT22;19894;48.452;11.494;2023-01-19T09:04:59;18.50;32.50
33564;DHT22;19894;48.452;11.494;2023-01-19T09:07:24;18.50;32.40
33564;DHT22;19894;48.452;11.494;2023-01-19T09:09:50;18.50;32.50
33564;DHT22;19894;48.452;11.494;2023-01-19T09:12:15;18.50;32.40
33564;DHT22;19894;48.452;11.494;2023-01-19T09:14:41;18.50;32.40
33564;DHT22;19894;48.452;11.494;2023-01-19T09:17:06;18.50;32.40
33564;DHT22;19894;48.452;11.494;2023-01-19T09:19:32;18.50;32.40
33564;DHT22;19894;48.452;11.494;2023-01-19T09:21:57;18.40;32.30
33564;DHT22;19894;48.452;11.494;2023-01-19T09:24:24;18.40;32.30
33564;DHT22;19894;48.452;11.494;2023-01-19T09:26:49;18.50;32.40
33564;DHT22;19894;48.452;11.494;2023-01-19T09:29:15;18.40;32.30
33564;DHT22;19894;48.452;11.494;2023-01-19T09:31:40;18.40;32.20
33564;DHT22;19894;48.452;11.494;2023-01-19T09:34:08;18.40;32.20
33564;DHT22;19894;48.452;11.494;2023-01-19T09:36:35;18.50;32.30
33564;DHT22;19894;48.452;11.494;2023-01-19T09:39:02;18.40;32.30
33564;DHT22;19894;48.452;11.494;2023-01-19T09:41:28;18.50;32.30
33564;DHT22;19894;48.452;11.494;2023-01-19T09:43:59;18.50;32.20
33564;DHT22;19894;48.452;11.494;2023-01-19T09:46:37;18.50;32.20
33564;DHT22;19894;48.452;11.494;2023-01-19T09:49:11;18.50;32.20
33564;DHT22;19894;48.452;11.494;2023-01-19T09:51:40;18.50;32.20
33564;DHT22;19894;48.452;11.494;2023-01-19T09:54:14;18.50;32.20
33564;DHT22;19894;48.452;11.494;2023-01-19T09:56:45;18.50;32.20
33564;DHT22;19894;48.452;11.494;2023-01-19T10:04:49;18.50;32.30
33564;DHT22;19894;48.452;11.494;2023-01-19T10:07:48;18.50;32.30
33564;DHT22;19894;48.452;11.494;2023-01-19T10:10:31;18.50;32.30
33564;DHT22;19894;48.452;11.494;2023-01-19T10:13:20;18.50;32.30
33564;DHT22;19894;48.452;11.494;2023-01-19T10:18:45;18.40;32.20
33564;DHT22;19894;48.452;11.494;2023-01-19T10:21:38;18.40;32.20
33564;DHT22;19894;48.452;11.494;2023-01-19T10:24:20;18.40;32.20
33564;DHT22;19894;48.452;11.494;2023-01-19T10:26:49;18.40;32.20
33564;DHT22;19894;48.452;11.494;2023-01-19T10:29:36;18.40;32.20
33564;DHT22;19894;48.452;11.494;2023-01-19T10:32:11;18.50;32.20
33564;DHT22;19894;48.452;11.494;2023-01-19T10:34:38;18.50;32.10
33564;DHT22;19894;48.452;11.494;2023-01-19T10:39:50;18.40;32.20
33564;DHT22;19894;48.452;11.494;2023-01-19T10:42:16;18.40;32.20
33564;DHT22;19894;48.452;11.494;2023-01-19T10:44:43;18.40;32.20
33564;DHT22;19894;48.452;11.494;2023-01-19T10:47:16;18.40;32.10
33564;DHT22;19894;48.452;11.494;2023-01-19T10:49:42;18.50;32.10
33564;DHT22;19894;48.452;11.494;2023-01-19T10:52:30;18.50;32.10
33564;DHT22;19894;48.452;11.494;2023-01-19T10:54:57;18.50;32.10
33564;DHT22;19894;48.452;11.494;2023-01-19T10:57:30;18.50;32.10
33564;DHT22;19894;48.452;11.494;2023-01-19T10:59:56;18.50;32.10
33564;DHT22;19894;48.452;11.494;2023-01-19T11:02:28;18.50;32.10
33564;DHT22;19894;48.452;11.494;2023-01-19T11:04:56;18.50;32.10
33564;DHT22;19894;48.452;11.494;2023-01-19T11:07:27;18.50;32.20
33564;DHT22;19894;48.452;11.494;2023-01-19T11:12:42;18.50;32.20
33564;DHT22;19894;48.452;11.494;2023-01-19T11:15:19;18.50;32.20
33564;DHT22;19894;48.452;11.494;2023-01-19T11:17:45;18.50;32.20
33564;DHT22;19894;48.452;11.494;2023-01-19T11:20:46;18.50;32.20
33564;DHT22;19894;48.452;11.494;2023-01-19T11:25:38;18.40;32.80
33564;DHT22;19894;48.452;11.494;2023-01-19T11:28:04;18.40;32.30
33564;DHT22;19894;48.452;11.494;2023-01-19T11:30:29;18.40;32.30
33564;DHT22;19894;48.452;11.494;2023-01-19T11:32:55;18.40;32.20
33564;DHT22;19894;48.452;11.494;2023-01-19T11:35:35;18.40;32.20
33564;DHT22;19894;48.452;11.494;2023-01-19T11:38:19;18.40;32.20
33564;DHT22;19894;48.452;11.494;2023-01-19T11:40:55;18.50;32.20
33564;DHT22;19894;48.452;11.494;2023-01-19T11:43:26;18.40;32.30
33564;DHT22;19894;48.452;11.494;2023-01-19T11:45:53;18.40;32.40
33564;DHT22;19894;48.452;11.494;2023-01-19T11:48:27;18.40;32.50
33564;DHT22;19894;48.452;11.494;2023-01-19T11:50:54;18.50;32.80
33564;DHT22;19894;48.452;11.494;2023-01-19T11:53:26;18.50;32.80
33564;DHT22;19894;48.452;11.494;2023-01-19T11:56:10;18.50;33.20
33564;DHT22;19894;48.452;11.494;2023-01-19T11:58:39;18.50;33.50
33564;DHT22;19894;48.452;11.494;2023-01-19T12:01:23;18.50;33.50
33564;DHT22;19894;48.452;11.494;2023-01-19T12:04:03;18.50;33.60
33564;DHT22;19894;48.452;11.494;2023-01-19T12:06:34;18.40;33.30
33564;DHT22;19894;48.452;11.494;2023-01-19T12:09:15;18.40;33.10
33564;DHT22;19894;48.452;11.494;2023-01-19T12:11:47;18.40;32.80
33564;DHT22;19894;48.452;11.494;2023-01-19T12:14:27;18.40;32.70
33564;DHT22;19894;48.452;11.494;2023-01-19T12:16:59;18.40;32.70
33564;DHT22;19894;48.452;11.494;2023-01-19T12:19:48;18.40;32.60
33564;DHT22;19894;48.452;11.494;2023-01-19T12:22:17;18.40;32.50
33564;DHT22;19894;48.452;11.494;2023-01-19T12:25:10;18.40;32.50
33564;DHT22;19894;48.452;11.494;2023-01-19T12:27:39;18.40;32.40
33564;DHT22;19894;48.452;11.494;2023-01-19T12:30:18;18.40;32.40
33564;DHT22;19894;48.452;11.494;2023-01-19T12:32:44;18.40;32.30
33564;DHT22;19894;48.452;11.494;2023-01-19T12:38:36;18.40;32.20
33564;DHT22;19894;48.452;11.494;2023-01-19T12:46:34;18.40;32.40
33564;DHT22;19894;48.452;11.494;2023-01-19T12:49:10;18.40;32.50
33564;DHT22;19894;48.452;11.494;2023-01-19T12:51:37;18.40;32.60
33564;DHT22;19894;48.452;11.494;2023-01-19T12:54:06;18.40;32.90
33564;DHT22;19894;48.452;11.494;2023-01-19T12:56:35;18.40;33.10
33564;DHT22;19894;48.452;11.494;2023-01-19T12:59:01;18.40;33.30
33564;DHT22;19894;48.452;11.494;2023-01-19T13:01:28;18.40;33.50
33564;DHT22;19894;48.452;11.494;2023-01-19T13:04:06;18.40;33.60
33564;DHT22;19894;48.452;11.494;2023-01-19T13:14:40;18.50;33.00
33564;DHT22;19894;48.452;11.494;2023-01-19T13:17:26;18.40;32.90
33564;DHT22;19894;48.452;11.494;2023-01-19T13:20:02;18.40;32.80
33564;DHT22;19894;48.452;11.494;2023-01-19T13:25:32;18.40;32.70
33564;DHT22;19894;48.452;11.494;2023-01-19T13:28:00;18.40;32.60
33564;DHT22;19894;48.452;11.494;2023-01-19T13:30:27;18.40;32.60
33564;DHT22;19894;48.452;11.494;2023-01-19T13:32:55;18.40;32.60
33564;DHT22;19894;48.452;11.494;2023-01-19T13:35:24;18.40;32.50
33564;DHT22;19894;48.452;11.494;2023-01-19T13:37:50;18.40;32.40
33564;DHT22;19894;48.452;11.494;2023-01-19T13:40:20;18.40;32.40
33564;DHT22;19894;48.452;11.494;2023-01-19T13:42:48;18.40;32.40
33564;DHT22;19894;48.452;11.494;2023-01-19T13:47:45;18.40;32.40
33564;DHT22;19894;48.452;11.494;2023-01-19T13:52:45;18.40;33.20
33564;DHT22;19894;48.452;11.494;2023-01-19T13:55:14;18.40;32.90
33564;DHT22;19894;48.452;11.494;2023-01-19T13:57:42;18.40;33.10
33564;DHT22;19894;48.452;11.494;2023-01-19T14:02:37;18.40;33.40
33564;DHT22;19894;48.452;11.494;2023-01-19T14:05:23;18.40;33.50
33564;DHT22;19894;48.452;11.494;2023-01-19T14:07:59;18.40;33.50
33564;DHT22;19894;48.452;11.494;2023-01-19T14:10:26;18.40;34.10
33564;DHT22;19894;48.452;11.494;2023-01-19T14:13:02;18.40;33.50
33564;DHT22;19894;48.452;11.494;2023-01-19T14:15:30;18.40;33.30
33564;DHT22;19894;48.452;11.494;2023-01-19T14:18:24;18.40;33.10
33564;DHT22;19894;48.452;11.494;2023-01-19T14:23:47;18.40;32.70
33564;DHT22;19894;48.452;11.494;2023-01-19T14:29:28;18.40;32.70
33564;DHT22;19894;48.452;11.494;2023-01-19T14:37:28;18.40;32.50
33564;DHT22;19894;48.452;11.494;2023-01-19T14:40:01;18.40;32.40
33564;DHT22;19894;48.452;11.494;2023-01-19T14:42:32;18.40;32.40
33564;DHT22;19894;48.452;11.494;2023-01-19T14:45:00;18.40;32.30
33564;DHT22;19894;48.452;11.494;2023-01-19T14:47:34;18.40;32.30
33564;DHT22;19894;48.452;11.494;2023-01-19T14:50:25;18.40;32.30
33564;DHT22;19894;48.452;11.494;2023-01-19T14:52:58;18.40;32.40
33564;DHT22;19894;48.452;11.494;2023-01-19T14:55:42;18.40;32.50
33564;DHT22;19894;48.452;11.494;2023-01-19T14:58:17;18.40;32.70
33564;DHT22;19894;48.452;11.494;2023-01-19T15:00:44;18.40;32.90
33564;DHT22;19894;48.452;11.494;2023-01-19T15:03:10;18.40;33.30
33564;DHT22;19894;48.452;11.494;2023-01-19T15:05:40;18.40;33.20
33564;DHT22;19894;48.452;11.494;2023-01-19T15:08:07;18.40;33.30
33564;DHT22;19894;48.452;11.494;2023-01-19T15:10:35;18.40;33.50
33564;DHT22;19894;48.452;11.494;2023-01-19T15:13:00;18.40;33.50
33564;DHT22;19894;48.452;11.494;2023-01-19T15:15:30;18.40;33.40
33564;DHT22;19894;48.452;11.494;2023-01-19T15:17:57;18.40;33.30
33564;DHT22;19894;48.452;11.494;2023-01-19T15:20:23;18.40;33.10
33564;DHT22;19894;48.452;11.494;2023-01-19T15:22:49;18.40;32.90
33564;DHT22;19894;48.452;11.494;2023-01-19T15:25:16;18.40;32.90
33564;DHT22;19894;48.452;11.494;2023-01-19T15:27:43;18.40;32.80
33564;DHT22;19894;48.452;11.494;2023-01-19T15:30:18;18.40;32.80
33564;DHT22;19894;48.452;11.494;2023-01-19T15:32:44;18.40;32.70
33564;DHT22;19894;48.452;11.494;2023-01-19T15:35:15;18.40;32.70
33564;DHT22;19894;48.452;11.494;2023-01-19T15:37:40;18.40;32.50
33564;DHT22;19894;48.452;11.494;2023-01-19T15:40:07;18.40;32.60
33564;DHT22;19894;48.452;11.494;2023-01-19T15:42:33;18.40;32.40
33564;DHT22;19894;48.452;11.494;2023-01-19T15:44:58;18.40;32.50
33564;DHT22;19894;48.452;11.494;2023-01-19T15:47:24;18.40;32.40
33564;DHT22;19894;48.452;11.494;2023-01-19T15:49:49;18.40;32.30
33564;DHT22;19894;48.452;11.494;2023-01-19T15:52:15;18.40;32.30
33564;DHT22;19894;48.452;11.494;2023-01-19T15:54:40;18.40;32.30
33564;DHT22;19894;48.452;11.494;2023-01-19T15:57:07;18.40;32.50
33564;DHT22;19894;48.452;11.494;2023-01-19T15:59:32;18.40;32.80
33564;DHT22;19894;48.452;11.494;2023-01-19T16:01:58;18.40;33.40
33564;DHT22;19894;48.452;11.494;2023-01-19T16:04:23;18.40;32.90
33564;DHT22;19894;48.452;11.494;2023-01-19T16:06:49;18.40;33.70
33564;DHT22;19894;48.452;11.494;2023-01-19T16:09:14;18.40;33.20
33564;DHT22;19894;48.452;11.494;2023-01-19T16:11:43;18.40;33.30
33564;DHT22;19894;48.452;11.494;2023-01-19T16:14:08;18.40;33.30
33564;DHT22;19894;48.452;11.494;2023-01-19T16:16:34;18.40;33.30
33564;DHT22;19894;48.452;11.494;2023-01-19T16:18:59;18.40;33.30
33564;DHT22;19894;48.452;11.494;2023-01-19T16:21:25;18.40;33.30
33564;DHT22;19894;48.452;11.494;2023-01-19T16:23:51;18.40;33.10
33564;DHT22;19894;48.452;11.494;2023-01-19T16:28:51;18.40;32.80
33564;DHT22;19894;48.452;11.494;2023-01-19T16:31:17;18.40;32.70
33564;DHT22;19894;48.452;11.494;2023-01-19T16:33:43;18.40;32.80
33564;DHT22;19894;48.452;11.494;2023-01-19T16:36:22;18.40;32.70
33564;DHT22;19894;48.452;11.494;2023-01-19T16:38:48;18.40;32.60